• Join FlightAware (Why Join?)
  • Login
  • US Flag GB Flag 
21:35 EST


 

Airport Tracker/Info


-or-


 

Live Flight TrackerFlight Track Log ✈ N451N ✈ 19-May-2013 ✈ KSVH - KBDL

Flight Track Log - Related Links

Times and Time Zones

All times are in EDT time to prevent confusion due to time zone crossing. See the N451N flight status page for this flight to view local times or setup timezone preferences in your user account.

Time Position Orientation Groundspeed Altitude Reporting Facility
EDT Latitude Longitude Course Direction KTS MPH feet Rate Location/Type
16:14 35.8194 -80.9578 47° Northeast 274 315 5,600  Level Atlanta Center
16:15 35.8683 -80.9972 327° Northwest 221 254 9,000 3,500 Climbing Atlanta Center
16:16 35.9172 -81.0389 325° Northwest 212 244 12,600 3,850 Climbing Atlanta Center
16:17 36.2215 -80.4158 47° Northeast  Level FlightAware Approximate
16:17 35.9744 -81.0700 336° Northwest 217 250 16,700  Level Atlanta Center
16:18 36.0381 -81.0344 24° Northeast 210 242 19,700 2,750 Climbing Atlanta Center
16:19 36.1103 -80.9958 23° Northeast 261 300 22,200 2,000 Climbing Atlanta Center
16:20 36.2006 -80.9408 26° Northeast 301 346 23,700 1,800 Climbing Atlanta Center
16:21 36.2969 -80.8728 30° Northeast 362 417 25,800 2,300 Climbing Atlanta Center
16:22 36.3933 -80.8069 29° Northeast 393 452 28,300 2,500 Climbing Atlanta Center
16:23 36.4914 -80.7386 29° Northeast 403 464 30,800 2,350 Climbing Atlanta Center
16:24 36.5897 -80.6697 29° Northeast 403 464 33,000 1,964 Climbing Atlanta Center
16:26 36.7386 -80.5269 38° Northeast 370 426 36,300 1,669 Climbing Washington Center
16:27 36.8058 -80.4119 54° Northeast 382 440 37,700 1,462 Climbing Washington Center
16:28 36.8689 -80.2964 56° Northeast 394 453 39,200 1,261 Climbing Washington Center
16:29 36.9250 -80.1958 55° Northeast 394 453 40,200 744 Climbing Washington Center
16:30 36.9878 -80.0825 55° Northeast 394 453 40,700 397 Climbing Washington Center
16:31 37.0506 -79.9639 56° Northeast 399 459 41,000 149 Climbing Washington Center
16:32 37.1264 -79.8250 56° Northeast 424 488 41,000  Level Washington Center
16:33 37.1956 -79.6958 56° Northeast 438 504 41,000  Level Washington Center
16:34 37.2669 -79.5614 56° Northeast 445 512 41,000  Level Washington Center
16:35 37.3314 -79.4394 56° Northeast 457 526 41,000  Level Washington Center
16:36 37.4047 -79.3017 56° Northeast 457 526 41,000  Level Washington Center
16:37 37.4817 -79.1747 53° Northeast 462 532 41,000  Level Washington Center
16:38 37.5567 -79.0289 57° Northeast 462 532 41,000  Level Washington Center
16:39 37.6272 -78.8958 56° Northeast 452 520 41,000  Level Washington Center
16:40 37.6997 -78.7625 55° Northeast 452 520 41,000  Level Washington Center
16:41 37.7611 -78.6442 57° Northeast 452 520 41,000  Level Washington Center
16:42 37.8333 -78.5103 56° Northeast 452 520 41,000  Level Washington Center
16:43 37.9033 -78.3736 57° Northeast 452 520 41,000  Level Washington Center
16:44 37.9817 -78.2264 56° Northeast 452 520 41,000  Level Washington Center
16:45 38.0428 -78.0992 59° Northeast 442 509 41,000  Level Washington Center
16:46 38.1081 -77.9667 58° Northeast 437 503 41,000  Level Washington Center
16:47 38.1733 -77.8317 58° Northeast 443 510 41,000  Level Washington Center
16:48 38.2403 -77.6961 58° Northeast 443 510 41,000  Level Washington Center
16:49 38.3050 -77.5631 58° Northeast 443 510 41,000  Level Washington Center
16:50 38.3739 -77.4269 57° Northeast 449 517 41,000  Level Washington Center
16:51 38.4406 -77.2936 57° Northeast 449 517 41,000  Level Washington Center
16:52 38.5028 -77.1622 59° Northeast 449 517 41,000  Level Washington Center
16:53 38.5650 -77.0333 58° Northeast 444 511 41,000  Level Washington Center
16:54 38.6289 -76.9019 58° Northeast 438 504 41,000  Level Washington Center
16:55 38.6908 -76.7725 58° Northeast 433 498 41,000  Level Washington Center
16:56 38.7647 -76.6539 51° Northeast 428 493 41,000  Level Washington Center
16:57 38.8408 -76.5403 49° Northeast 423 487 41,000  Level Washington Center
16:58 38.9189 -76.4267 49° Northeast 423 487 41,000  Level Washington Center
16:59 38.9967 -76.3128 49° Northeast 423 487 41,000  Level Washington Center
17:00 39.0744 -76.1986 49° Northeast 423 487 41,000  Level Washington Center
17:01 39.1458 -76.0919 49° Northeast 428 493 41,000  Level Washington Center
17:02 39.2233 -75.9775 49° Northeast 433 498 41,000  Level Washington Center
17:03 39.3008 -75.8597 50° Northeast 433 498 41,000  Level Washington Center
17:04 39.3800 -75.7419 49° Northeast 428 493 41,000 -198 Level Washington Center
17:05 39.4572 -75.6211 50° Northeast 428 493 40,600 -1,091 Descending Washington Center
17:06 39.5364 -75.5028 49° Northeast 428 493 38,800 -2,011 Descending Washington Center
17:08 39.7011 -75.2525 49° Northeast 430 495 34,700 -1,943 Descending New York Center
17:09 39.7722 -75.1328 52° Northeast 442 509 33,100 -1,815 Descending New York Center
17:10 39.8542 -75.0056 50° Northeast 454 522 31,100 -2,017 Descending New York Center
17:11 39.9400 -74.8753 49° Northeast 459 528 29,100 -1,967 Descending New York Center
17:12 40.0300 -74.7422 49° Northeast 472 543 27,100 -1,059 Descending New York Center
17:13 40.1097 -74.6003 54° Northeast 478 550 27,000 -51 Descending New York Center
17:14 40.1811 -74.4575 57° Northeast 471 542 27,000  Level New York Center
17:15 40.2497 -74.3225 56° Northeast 457 526 27,000 -537 Level New York Center
17:16 40.3247 -74.1875 54° Northeast 452 520 25,900 -1,311 Descending New York Center
17:17 40.3950 -74.0603 54° Northeast 446 513 24,400 -1,510 Descending New York Center
17:18 40.5119 -73.8431 55° Northeast 432 497 22,000 -1,291 Descending Boston Center
17:19 40.5781 -73.7161 56° Northeast 426 490 21,000 -950 Descending Boston Center
17:20 40.6378 -73.5969 57° Northeast 426 490 20,100 -1,000 Descending Boston Center
17:21 40.7119 -73.4614 54° Northeast 426 490 19,000 -550 Descending Boston Center
17:22 40.7756 -73.3389 56° Northeast 421 484 19,000  Level Boston Center
17:23 40.8553 -73.2358 44° Northeast 407 468 19,000  Level Boston Center
17:24 40.9436 -73.1325 41° Northeast 402 463 19,000  Level Boston Center
17:25 41.0169 -73.0453 42° Northeast 402 463 19,000 -793 Level Boston Center
17:26 41.0989 -72.9469 42° Northeast 397 457 17,400 -1,850 Descending Boston Center
17:27 41.1764 -72.8564 41° Northeast 386 444 15,300 -2,250 Descending Boston Center
17:28 41.2222 -72.8072 39° Northeast 365 420 14,100 -2,273 Descending Boston Center
17:28 41.2642 -72.7522 45° Northeast 345 397 12,800 -1,912 Descending Boston Center
17:29 41.3289 -72.7275 16° North 294 338 11,200 -1,526 Descending Boston Center
17:30 41.4119 -72.7778 336° Northwest 286 329 9,900 -1,250 Descending Boston Center
17:31 41.4681 -72.8225 329° Northwest 272 313 8,700 -1,610 Descending Boston Center
17:32 41.5536 -72.8422 350° North 291 335 6,600 -1,700 Descending Boston Center
17:33 41.6183 -72.8094 21° North 269 310 5,300 -821 Descending Boston Center
17:34 41.6997 -72.7739 18° North 277 319 5,000 -150 Descending Boston Center
17:35 41.7603 -72.7183 34° Northeast 282 325 5,000  Level Boston Center
17:36 41.8292 -72.6519 36° Northeast 282 325 5,000  Level Boston Center
17:37 41.8708 -72.5989 43° Northeast 267 307 5,000 -550 Level Boston Center
17:38 41.9272 -72.5267 44° Northeast 236 272 3,900 -1,139 Descending Boston Center
17:39 41.9397 -72.5125 40° Northeast 234 269 3,500 -1,000 Descending Boston Center
17:39 41.9711 -72.4736 43° Northeast 231 266 2,900 -984 Descending Boston Center
17:40 41.9878 -72.4514 45° Northeast 236 272 2,500 -324 Descending Boston Center
17:41 42.0356 -72.4625 350° North 221 254 2,500  Level Boston Center
17:41 42.0544 -72.5100 298° West 167 192 2,500  Level Boston Center
17:42 42.0481 -72.5492 258° West 207 238 2,500 -100 Level Boston Center
17:42 42.0294 -72.5742 225° Southwest 145 167 2,400 -393 Descending Boston Center
17:43 42.0106 -72.5939 218° Southwest 181 208 2,100 -940 Descending Boston Center
17:44 41.9814 -72.6272 220° Southwest 151 174 1,100 -1,091 Descending Boston Center